sensor_id;sensor_type;location;lat;lon;timestamp;P1;durP1;ratioP1;P2;durP2;ratioP2
47529;SDS011;33272;51.922;7.730;2023-07-16T00:01:55;2.67;;;1.40;;
47529;SDS011;33272;51.922;7.730;2023-07-16T00:04:22;2.10;;;1.73;;
47529;SDS011;33272;51.922;7.730;2023-07-16T00:06:50;1.70;;;1.40;;
47529;SDS011;33272;51.922;7.730;2023-07-16T00:09:17;2.30;;;1.43;;
47529;SDS011;33272;51.922;7.730;2023-07-16T00:11:44;3.70;;;1.50;;
47529;SDS011;33272;51.922;7.730;2023-07-16T00:14:12;2.43;;;1.80;;
47529;SDS011;33272;51.922;7.730;2023-07-16T00:16:39;2.23;;;1.70;;
47529;SDS011;33272;51.922;7.730;2023-07-16T00:19:06;2.67;;;1.60;;
47529;SDS011;33272;51.922;7.730;2023-07-16T00:21:33;2.50;;;1.90;;
47529;SDS011;33272;51.922;7.730;2023-07-16T00:24:00;2.93;;;1.87;;
47529;SDS011;33272;51.922;7.730;2023-07-16T00:26:27;2.40;;;1.80;;
47529;SDS011;33272;51.922;7.730;2023-07-16T00:28:54;2.73;;;1.60;;
47529;SDS011;33272;51.922;7.730;2023-07-16T00:31:22;2.70;;;1.93;;
47529;SDS011;33272;51.922;7.730;2023-07-16T00:33:49;3.93;;;1.40;;
47529;SDS011;33272;51.922;7.730;2023-07-16T00:36:16;1.70;;;1.53;;
47529;SDS011;33272;51.922;7.730;2023-07-16T00:38:43;2.00;;;1.73;;
47529;SDS011;33272;51.922;7.730;2023-07-16T00:41:12;2.47;;;1.90;;
47529;SDS011;33272;51.922;7.730;2023-07-16T00:43:39;2.87;;;1.63;;
47529;SDS011;33272;51.922;7.730;2023-07-16T00:46:07;2.03;;;1.57;;
47529;SDS011;33272;51.922;7.730;2023-07-16T00:48:36;4.10;;;2.03;;
47529;SDS011;33272;51.922;7.730;2023-07-16T00:51:03;2.47;;;1.80;;
47529;SDS011;33272;51.922;7.730;2023-07-16T00:53:31;3.43;;;2.03;;
47529;SDS011;33272;51.922;7.730;2023-07-16T00:55:58;3.33;;;2.23;;
47529;SDS011;33272;51.922;7.730;2023-07-16T00:58:25;5.67;;;1.90;;
47529;SDS011;33272;51.922;7.730;2023-07-16T01:00:52;3.10;;;1.90;;
47529;SDS011;33272;51.922;7.730;2023-07-16T01:03:19;2.63;;;1.70;;
47529;SDS011;33272;51.922;7.730;2023-07-16T01:05:49;2.70;;;1.70;;
47529;SDS011;33272;51.922;7.730;2023-07-16T01:08:27;2.70;;;1.77;;
47529;SDS011;33272;51.922;7.730;2023-07-16T01:11:01;2.77;;;2.00;;
47529;SDS011;33272;51.922;7.730;2023-07-16T01:13:29;1.97;;;1.77;;
47529;SDS011;33272;51.922;7.730;2023-07-16T01:15:56;5.37;;;2.00;;
47529;SDS011;33272;51.922;7.730;2023-07-16T01:18:23;4.13;;;1.90;;
47529;SDS011;33272;51.922;7.730;2023-07-16T01:20:52;2.70;;;2.00;;
47529;SDS011;33272;51.922;7.730;2023-07-16T01:23:39;3.10;;;2.23;;
47529;SDS011;33272;51.922;7.730;2023-07-16T01:27:00;3.43;;;2.03;;
47529;SDS011;33272;51.922;7.730;2023-07-16T01:29:46;4.37;;;2.07;;
47529;SDS011;33272;51.922;7.730;2023-07-16T01:32:15;3.00;;;2.00;;
47529;SDS011;33272;51.922;7.730;2023-07-16T01:34:44;2.57;;;2.30;;
47529;SDS011;33272;51.922;7.730;2023-07-16T01:37:11;3.17;;;2.13;;
47529;SDS011;33272;51.922;7.730;2023-07-16T01:39:38;3.33;;;2.40;;
47529;SDS011;33272;51.922;7.730;2023-07-16T01:42:06;2.60;;;1.83;;
47529;SDS011;33272;51.922;7.730;2023-07-16T01:44:32;3.80;;;2.20;;
47529;SDS011;33272;51.922;7.730;2023-07-16T01:47:05;3.93;;;1.97;;
47529;SDS011;33272;51.922;7.730;2023-07-16T01:49:35;2.80;;;2.33;;
47529;SDS011;33272;51.922;7.730;2023-07-16T01:52:02;4.67;;;2.10;;
47529;SDS011;33272;51.922;7.730;2023-07-16T01:54:32;3.10;;;1.87;;
47529;SDS011;33272;51.922;7.730;2023-07-16T01:56:59;3.83;;;2.13;;
47529;SDS011;33272;51.922;7.730;2023-07-16T01:59:26;2.60;;;2.10;;
47529;SDS011;33272;51.922;7.730;2023-07-16T02:01:53;4.43;;;2.13;;
47529;SDS011;33272;51.922;7.730;2023-07-16T02:04:21;5.10;;;2.43;;
47529;SDS011;33272;51.922;7.730;2023-07-16T02:06:48;5.60;;;2.40;;
47529;SDS011;33272;51.922;7.730;2023-07-16T02:09:15;2.67;;;2.17;;
47529;SDS011;33272;51.922;7.730;2023-07-16T02:11:42;5.07;;;2.53;;
47529;SDS011;33272;51.922;7.730;2023-07-16T02:14:09;3.77;;;2.37;;
47529;SDS011;33272;51.922;7.730;2023-07-16T02:16:36;3.57;;;2.10;;
47529;SDS011;33272;51.922;7.730;2023-07-16T02:19:03;3.40;;;2.20;;
47529;SDS011;33272;51.922;7.730;2023-07-16T02:21:31;3.63;;;2.47;;
47529;SDS011;33272;51.922;7.730;2023-07-16T02:23:58;2.70;;;2.30;;
47529;SDS011;33272;51.922;7.730;2023-07-16T02:26:25;3.23;;;2.37;;
47529;SDS011;33272;51.922;7.730;2023-07-16T02:28:52;3.33;;;2.27;;
47529;SDS011;33272;51.922;7.730;2023-07-16T02:31:19;4.17;;;2.67;;
47529;SDS011;33272;51.922;7.730;2023-07-16T02:33:46;5.40;;;2.97;;
47529;SDS011;33272;51.922;7.730;2023-07-16T02:36:13;5.63;;;2.20;;
47529;SDS011;33272;51.922;7.730;2023-07-16T02:38:41;3.70;;;2.47;;
47529;SDS011;33272;51.922;7.730;2023-07-16T02:41:08;5.50;;;2.53;;
47529;SDS011;33272;51.922;7.730;2023-07-16T02:43:35;4.70;;;3.77;;
47529;SDS011;33272;51.922;7.730;2023-07-16T02:46:02;4.93;;;3.17;;
47529;SDS011;33272;51.922;7.730;2023-07-16T02:48:29;3.53;;;2.90;;
47529;SDS011;33272;51.922;7.730;2023-07-16T02:50:56;4.90;;;3.17;;
47529;SDS011;33272;51.922;7.730;2023-07-16T02:53:23;5.47;;;2.87;;
47529;SDS011;33272;51.922;7.730;2023-07-16T02:55:52;3.57;;;2.83;;
47529;SDS011;33272;51.922;7.730;2023-07-16T02:58:19;5.73;;;3.13;;
47529;SDS011;33272;51.922;7.730;2023-07-16T03:00:46;4.33;;;2.77;;
47529;SDS011;33272;51.922;7.730;2023-07-16T03:03:13;5.37;;;3.53;;
47529;SDS011;33272;51.922;7.730;2023-07-16T03:05:40;4.50;;;3.50;;
47529;SDS011;33272;51.922;7.730;2023-07-16T03:08:07;5.23;;;2.83;;
47529;SDS011;33272;51.922;7.730;2023-07-16T03:10:34;6.47;;;3.40;;
47529;SDS011;33272;51.922;7.730;2023-07-16T03:13:02;4.33;;;3.10;;
47529;SDS011;33272;51.922;7.730;2023-07-16T03:15:29;4.13;;;2.93;;
47529;SDS011;33272;51.922;7.730;2023-07-16T03:17:56;4.43;;;2.93;;
47529;SDS011;33272;51.922;7.730;2023-07-16T03:20:23;7.03;;;3.33;;
47529;SDS011;33272;51.922;7.730;2023-07-16T03:22:50;5.57;;;3.40;;
47529;SDS011;33272;51.922;7.730;2023-07-16T03:25:16;7.60;;;3.23;;
47529;SDS011;33272;51.922;7.730;2023-07-16T03:27:45;3.47;;;3.00;;
47529;SDS011;33272;51.922;7.730;2023-07-16T03:30:13;4.03;;;3.10;;
47529;SDS011;33272;51.922;7.730;2023-07-16T03:32:40;6.13;;;3.57;;
47529;SDS011;33272;51.922;7.730;2023-07-16T03:35:07;6.17;;;3.47;;
47529;SDS011;33272;51.922;7.730;2023-07-16T03:37:35;4.23;;;3.07;;
47529;SDS011;33272;51.922;7.730;2023-07-16T03:40:11;7.43;;;3.90;;
47529;SDS011;33272;51.922;7.730;2023-07-16T03:42:40;5.37;;;3.23;;
47529;SDS011;33272;51.922;7.730;2023-07-16T03:45:08;4.37;;;2.30;;
47529;SDS011;33272;51.922;7.730;2023-07-16T03:47:38;6.03;;;2.57;;
47529;SDS011;33272;51.922;7.730;2023-07-16T03:50:06;4.40;;;2.80;;
47529;SDS011;33272;51.922;7.730;2023-07-16T03:52:34;3.10;;;2.50;;
47529;SDS011;33272;51.922;7.730;2023-07-16T03:55:01;5.10;;;2.90;;
47529;SDS011;33272;51.922;7.730;2023-07-16T03:57:29;4.70;;;2.80;;
47529;SDS011;33272;51.922;7.730;2023-07-16T03:59:56;5.80;;;2.83;;
47529;SDS011;33272;51.922;7.730;2023-07-16T04:02:23;3.57;;;2.50;;
47529;SDS011;33272;51.922;7.730;2023-07-16T04:04:52;3.83;;;2.33;;
47529;SDS011;33272;51.922;7.730;2023-07-16T04:07:19;3.60;;;2.60;;
47529;SDS011;33272;51.922;7.730;2023-07-16T04:09:46;3.70;;;2.33;;
47529;SDS011;33272;51.922;7.730;2023-07-16T04:12:13;3.93;;;2.40;;
47529;SDS011;33272;51.922;7.730;2023-07-16T04:14:40;3.67;;;2.63;;
47529;SDS011;33272;51.922;7.730;2023-07-16T04:17:07;5.57;;;2.60;;
47529;SDS011;33272;51.922;7.730;2023-07-16T04:19:34;3.03;;;2.27;;
47529;SDS011;33272;51.922;7.730;2023-07-16T04:22:03;4.53;;;2.40;;
47529;SDS011;33272;51.922;7.730;2023-07-16T04:24:31;3.87;;;2.10;;
47529;SDS011;33272;51.922;7.730;2023-07-16T04:26:58;3.57;;;2.10;;
47529;SDS011;33272;51.922;7.730;2023-07-16T04:29:25;4.43;;;2.40;;
47529;SDS011;33272;51.922;7.730;2023-07-16T04:31:52;3.07;;;1.97;;
47529;SDS011;33272;51.922;7.730;2023-07-16T04:34:19;3.60;;;2.00;;
47529;SDS011;33272;51.922;7.730;2023-07-16T04:36:46;6.17;;;2.00;;
47529;SDS011;33272;51.922;7.730;2023-07-16T04:39:14;3.93;;;2.10;;
47529;SDS011;33272;51.922;7.730;2023-07-16T04:41:41;5.03;;;2.33;;
47529;SDS011;33272;51.922;7.730;2023-07-16T04:44:08;2.47;;;2.00;;
47529;SDS011;33272;51.922;7.730;2023-07-16T04:46:35;3.40;;;2.30;;
47529;SDS011;33272;51.922;7.730;2023-07-16T04:49:02;3.43;;;2.00;;
47529;SDS011;33272;51.922;7.730;2023-07-16T04:51:31;3.73;;;2.03;;
47529;SDS011;33272;51.922;7.730;2023-07-16T04:53:58;3.00;;;1.90;;
47529;SDS011;33272;51.922;7.730;2023-07-16T04:56:26;4.70;;;2.37;;
47529;SDS011;33272;51.922;7.730;2023-07-16T04:58:53;3.40;;;2.10;;
47529;SDS011;33272;51.922;7.730;2023-07-16T05:01:20;5.87;;;2.60;;
47529;SDS011;33272;51.922;7.730;2023-07-16T05:03:47;4.40;;;1.90;;
47529;SDS011;33272;51.922;7.730;2023-07-16T05:06:14;4.57;;;2.37;;
47529;SDS011;33272;51.922;7.730;2023-07-16T05:08:41;4.33;;;2.33;;
47529;SDS011;33272;51.922;7.730;2023-07-16T05:11:08;2.60;;;2.00;;
47529;SDS011;33272;51.922;7.730;2023-07-16T05:13:36;2.87;;;1.87;;
47529;SDS011;33272;51.922;7.730;2023-07-16T05:16:04;3.03;;;2.50;;
47529;SDS011;33272;51.922;7.730;2023-07-16T05:18:31;3.60;;;2.67;;
47529;SDS011;33272;51.922;7.730;2023-07-16T05:20:58;5.73;;;2.90;;
47529;SDS011;33272;51.922;7.730;2023-07-16T05:23:25;4.50;;;2.70;;
47529;SDS011;33272;51.922;7.730;2023-07-16T05:25:52;6.10;;;3.47;;
47529;SDS011;33272;51.922;7.730;2023-07-16T05:28:19;5.00;;;2.40;;
47529;SDS011;33272;51.922;7.730;2023-07-16T05:30:47;5.70;;;2.50;;
47529;SDS011;33272;51.922;7.730;2023-07-16T05:33:23;5.90;;;2.80;;
47529;SDS011;33272;51.922;7.730;2023-07-16T05:35:50;7.00;;;3.00;;
47529;SDS011;33272;51.922;7.730;2023-07-16T05:38:16;4.90;;;2.67;;
47529;SDS011;33272;51.922;7.730;2023-07-16T05:40:44;6.07;;;2.70;;
47529;SDS011;33272;51.922;7.730;2023-07-16T05:43:11;5.07;;;2.30;;
47529;SDS011;33272;51.922;7.730;2023-07-16T05:45:38;3.80;;;2.73;;
47529;SDS011;33272;51.922;7.730;2023-07-16T05:48:06;6.53;;;2.93;;
47529;SDS011;33272;51.922;7.730;2023-07-16T05:50:33;4.80;;;2.97;;
47529;SDS011;33272;51.922;7.730;2023-07-16T05:53:00;3.90;;;2.80;;
47529;SDS011;33272;51.922;7.730;2023-07-16T05:55:27;4.20;;;2.63;;
47529;SDS011;33272;51.922;7.730;2023-07-16T05:57:54;5.67;;;3.10;;
47529;SDS011;33272;51.922;7.730;2023-07-16T06:00:21;6.43;;;3.40;;
47529;SDS011;33272;51.922;7.730;2023-07-16T06:02:48;6.30;;;3.03;;
47529;SDS011;33272;51.922;7.730;2023-07-16T06:05:17;5.23;;;2.57;;
47529;SDS011;33272;51.922;7.730;2023-07-16T06:07:44;6.33;;;3.03;;
47529;SDS011;33272;51.922;7.730;2023-07-16T06:10:11;4.20;;;2.40;;
47529;SDS011;33272;51.922;7.730;2023-07-16T06:12:38;6.20;;;3.07;;
47529;SDS011;33272;51.922;7.730;2023-07-16T06:15:05;4.87;;;2.43;;
47529;SDS011;33272;51.922;7.730;2023-07-16T06:17:33;7.13;;;3.30;;
47529;SDS011;33272;51.922;7.730;2023-07-16T06:20:01;4.67;;;2.27;;
47529;SDS011;33272;51.922;7.730;2023-07-16T06:22:30;5.90;;;2.77;;
47529;SDS011;33272;51.922;7.730;2023-07-16T06:24:57;3.53;;;3.03;;
47529;SDS011;33272;51.922;7.730;2023-07-16T06:27:25;5.53;;;2.47;;
47529;SDS011;33272;51.922;7.730;2023-07-16T06:29:52;5.13;;;3.07;;
47529;SDS011;33272;51.922;7.730;2023-07-16T06:32:19;7.33;;;3.27;;
47529;SDS011;33272;51.922;7.730;2023-07-16T06:34:46;4.83;;;3.20;;
47529;SDS011;33272;51.922;7.730;2023-07-16T06:37:13;4.20;;;3.13;;
47529;SDS011;33272;51.922;7.730;2023-07-16T06:39:41;5.53;;;2.93;;
47529;SDS011;33272;51.922;7.730;2023-07-16T06:42:08;4.90;;;3.20;;
47529;SDS011;33272;51.922;7.730;2023-07-16T06:44:35;5.83;;;2.90;;
47529;SDS011;33272;51.922;7.730;2023-07-16T06:47:02;7.00;;;3.07;;
47529;SDS011;33272;51.922;7.730;2023-07-16T06:49:30;11.40;;;3.83;;
47529;SDS011;33272;51.922;7.730;2023-07-16T06:51:59;5.83;;;2.87;;
47529;SDS011;33272;51.922;7.730;2023-07-16T06:54:27;6.07;;;3.10;;
47529;SDS011;33272;51.922;7.730;2023-07-16T06:56:55;4.87;;;3.50;;
47529;SDS011;33272;51.922;7.730;2023-07-16T06:59:22;3.30;;;2.30;;
47529;SDS011;33272;51.922;7.730;2023-07-16T07:01:49;4.53;;;2.60;;
47529;SDS011;33272;51.922;7.730;2023-07-16T07:04:16;3.63;;;2.80;;
47529;SDS011;33272;51.922;7.730;2023-07-16T07:06:43;5.33;;;2.43;;
47529;SDS011;33272;51.922;7.730;2023-07-16T07:09:10;3.93;;;3.13;;
47529;SDS011;33272;51.922;7.730;2023-07-16T07:11:37;6.23;;;3.33;;
47529;SDS011;33272;51.922;7.730;2023-07-16T07:14:05;9.53;;;2.93;;
47529;SDS011;33272;51.922;7.730;2023-07-16T07:16:32;5.17;;;3.07;;
47529;SDS011;33272;51.922;7.730;2023-07-16T07:18:59;4.23;;;3.00;;
47529;SDS011;33272;51.922;7.730;2023-07-16T07:21:27;8.20;;;3.17;;
47529;SDS011;33272;51.922;7.730;2023-07-16T07:23:54;4.27;;;2.80;;
47529;SDS011;33272;51.922;7.730;2023-07-16T07:26:21;5.93;;;2.97;;
47529;SDS011;33272;51.922;7.730;2023-07-16T07:28:48;5.03;;;3.33;;
47529;SDS011;33272;51.922;7.730;2023-07-16T07:31:16;8.93;;;3.93;;
47529;SDS011;33272;51.922;7.730;2023-07-16T07:33:43;5.20;;;3.40;;
47529;SDS011;33272;51.922;7.730;2023-07-16T07:36:10;6.57;;;3.60;;
47529;SDS011;33272;51.922;7.730;2023-07-16T07:38:37;6.60;;;3.40;;
47529;SDS011;33272;51.922;7.730;2023-07-16T07:41:04;7.17;;;3.30;;
47529;SDS011;33272;51.922;7.730;2023-07-16T07:43:32;9.27;;;3.73;;
47529;SDS011;33272;51.922;7.730;2023-07-16T07:45:59;6.43;;;3.33;;
47529;SDS011;33272;51.922;7.730;2023-07-16T07:48:27;5.20;;;3.30;;
47529;SDS011;33272;51.922;7.730;2023-07-16T07:50:54;4.43;;;3.00;;
47529;SDS011;33272;51.922;7.730;2023-07-16T07:53:21;6.57;;;3.23;;
47529;SDS011;33272;51.922;7.730;2023-07-16T07:55:48;5.13;;;3.10;;
47529;SDS011;33272;51.922;7.730;2023-07-16T07:58:15;6.90;;;3.80;;
47529;SDS011;33272;51.922;7.730;2023-07-16T08:00:42;6.27;;;3.30;;
47529;SDS011;33272;51.922;7.730;2023-07-16T08:03:09;6.53;;;3.13;;
47529;SDS011;33272;51.922;7.730;2023-07-16T08:05:37;7.53;;;3.03;;
47529;SDS011;33272;51.922;7.730;2023-07-16T08:08:04;6.00;;;3.73;;
47529;SDS011;33272;51.922;7.730;2023-07-16T08:10:31;4.50;;;3.33;;
47529;SDS011;33272;51.922;7.730;2023-07-16T08:12:58;7.23;;;3.40;;
47529;SDS011;33272;51.922;7.730;2023-07-16T08:15:25;5.53;;;3.07;;
47529;SDS011;33272;51.922;7.730;2023-07-16T08:17:52;4.80;;;3.00;;
47529;SDS011;33272;51.922;7.730;2023-07-16T08:20:21;3.83;;;3.40;;
47529;SDS011;33272;51.922;7.730;2023-07-16T08:22:49;6.63;;;3.53;;
47529;SDS011;33272;51.922;7.730;2023-07-16T08:25:16;7.10;;;3.20;;
47529;SDS011;33272;51.922;7.730;2023-07-16T08:27:44;5.33;;;3.10;;
47529;SDS011;33272;51.922;7.730;2023-07-16T08:30:11;4.87;;;3.33;;
47529;SDS011;33272;51.922;7.730;2023-07-16T08:32:38;5.33;;;3.30;;
47529;SDS011;33272;51.922;7.730;2023-07-16T08:35:05;5.70;;;3.60;;
47529;SDS011;33272;51.922;7.730;2023-07-16T08:37:37;4.63;;;3.10;;
47529;SDS011;33272;51.922;7.730;2023-07-16T08:40:06;5.87;;;3.27;;
47529;SDS011;33272;51.922;7.730;2023-07-16T08:42:35;5.33;;;2.90;;
47529;SDS011;33272;51.922;7.730;2023-07-16T08:45:03;4.77;;;3.00;;
47529;SDS011;33272;51.922;7.730;2023-07-16T08:47:35;7.33;;;3.13;;
47529;SDS011;33272;51.922;7.730;2023-07-16T08:50:03;5.53;;;3.83;;
47529;SDS011;33272;51.922;7.730;2023-07-16T08:52:31;5.77;;;2.90;;
47529;SDS011;33272;51.922;7.730;2023-07-16T08:54:58;5.40;;;3.43;;
47529;SDS011;33272;51.922;7.730;2023-07-16T08:57:26;6.17;;;2.93;;
47529;SDS011;33272;51.922;7.730;2023-07-16T08:59:54;4.73;;;3.00;;
47529;SDS011;33272;51.922;7.730;2023-07-16T09:02:22;7.03;;;3.67;;
47529;SDS011;33272;51.922;7.730;2023-07-16T09:04:49;7.23;;;3.47;;
47529;SDS011;33272;51.922;7.730;2023-07-16T09:07:17;5.90;;;3.03;;
47529;SDS011;33272;51.922;7.730;2023-07-16T09:09:54;7.13;;;3.03;;
47529;SDS011;33272;51.922;7.730;2023-07-16T09:12:24;4.37;;;2.73;;
47529;SDS011;33272;51.922;7.730;2023-07-16T09:14:54;4.13;;;3.10;;
47529;SDS011;33272;51.922;7.730;2023-07-16T09:17:21;5.47;;;2.77;;
47529;SDS011;33272;51.922;7.730;2023-07-16T09:19:49;4.87;;;3.10;;
47529;SDS011;33272;51.922;7.730;2023-07-16T09:22:17;6.63;;;3.13;;
47529;SDS011;33272;51.922;7.730;2023-07-16T09:24:44;6.77;;;3.17;;
47529;SDS011;33272;51.922;7.730;2023-07-16T09:27:12;6.30;;;3.13;;
47529;SDS011;33272;51.922;7.730;2023-07-16T09:29:41;4.20;;;2.90;;
47529;SDS011;33272;51.922;7.730;2023-07-16T09:32:08;4.40;;;3.07;;
47529;SDS011;33272;51.922;7.730;2023-07-16T09:34:36;4.90;;;3.17;;
47529;SDS011;33272;51.922;7.730;2023-07-16T09:37:04;3.70;;;2.67;;
47529;SDS011;33272;51.922;7.730;2023-07-16T09:39:32;7.23;;;3.47;;
47529;SDS011;33272;51.922;7.730;2023-07-16T09:42:00;6.70;;;3.83;;
47529;SDS011;33272;51.922;7.730;2023-07-16T09:44:29;5.50;;;3.30;;
47529;SDS011;33272;51.922;7.730;2023-07-16T09:46:58;5.73;;;3.27;;
47529;SDS011;33272;51.922;7.730;2023-07-16T09:49:26;4.90;;;3.00;;
47529;SDS011;33272;51.922;7.730;2023-07-16T09:51:55;5.97;;;3.57;;
47529;SDS011;33272;51.922;7.730;2023-07-16T09:54:24;5.77;;;3.27;;
47529;SDS011;33272;51.922;7.730;2023-07-16T09:56:58;4.67;;;3.33;;
47529;SDS011;33272;51.922;7.730;2023-07-16T09:59:27;7.63;;;3.37;;
47529;SDS011;33272;51.922;7.730;2023-07-16T10:01:59;6.60;;;3.20;;
47529;SDS011;33272;51.922;7.730;2023-07-16T10:04:26;5.43;;;3.00;;
47529;SDS011;33272;51.922;7.730;2023-07-16T10:07:05;4.33;;;2.77;;
47529;SDS011;33272;51.922;7.730;2023-07-16T10:09:33;5.03;;;2.93;;
47529;SDS011;33272;51.922;7.730;2023-07-16T10:12:11;6.60;;;3.30;;
47529;SDS011;33272;51.922;7.730;2023-07-16T10:14:40;5.43;;;3.07;;
47529;SDS011;33272;51.922;7.730;2023-07-16T10:17:13;6.87;;;3.00;;
47529;SDS011;33272;51.922;7.730;2023-07-16T10:19:45;4.47;;;2.80;;
47529;SDS011;33272;51.922;7.730;2023-07-16T10:22:30;8.07;;;3.23;;
47529;SDS011;33272;51.922;7.730;2023-07-16T10:24:59;6.57;;;2.83;;
47529;SDS011;33272;51.922;7.730;2023-07-16T10:27:27;4.70;;;2.77;;
47529;SDS011;33272;51.922;7.730;2023-07-16T10:29:58;6.03;;;3.30;;
47529;SDS011;33272;51.922;7.730;2023-07-16T10:32:29;3.40;;;2.60;;
47529;SDS011;33272;51.922;7.730;2023-07-16T10:34:58;5.67;;;2.97;;
47529;SDS011;33272;51.922;7.730;2023-07-16T10:37:25;4.17;;;2.80;;
47529;SDS011;33272;51.922;7.730;2023-07-16T10:39:53;6.70;;;3.17;;
47529;SDS011;33272;51.922;7.730;2023-07-16T10:42:22;3.73;;;2.73;;
47529;SDS011;33272;51.922;7.730;2023-07-16T10:44:51;4.50;;;2.90;;
47529;SDS011;33272;51.922;7.730;2023-07-16T10:47:19;4.17;;;2.90;;
47529;SDS011;33272;51.922;7.730;2023-07-16T10:49:51;5.30;;;2.90;;
47529;SDS011;33272;51.922;7.730;2023-07-16T10:52:19;4.13;;;2.60;;
47529;SDS011;33272;51.922;7.730;2023-07-16T10:54:47;4.07;;;2.57;;
47529;SDS011;33272;51.922;7.730;2023-07-16T10:57:15;2.90;;;2.60;;
47529;SDS011;33272;51.922;7.730;2023-07-16T10:59:44;5.83;;;3.10;;
47529;SDS011;33272;51.922;7.730;2023-07-16T11:02:14;4.73;;;2.60;;
47529;SDS011;33272;51.922;7.730;2023-07-16T11:04:43;3.87;;;2.50;;
47529;SDS011;33272;51.922;7.730;2023-07-16T11:07:13;4.77;;;2.50;;
47529;SDS011;33272;51.922;7.730;2023-07-16T11:09:41;6.03;;;2.80;;
47529;SDS011;33272;51.922;7.730;2023-07-16T11:12:10;5.60;;;3.37;;
47529;SDS011;33272;51.922;7.730;2023-07-16T11:14:39;4.87;;;3.40;;
47529;SDS011;33272;51.922;7.730;2023-07-16T11:17:10;5.63;;;2.63;;
47529;SDS011;33272;51.922;7.730;2023-07-16T11:19:39;5.17;;;2.83;;
47529;SDS011;33272;51.922;7.730;2023-07-16T11:22:10;4.57;;;3.20;;
47529;SDS011;33272;51.922;7.730;2023-07-16T11:24:40;4.80;;;3.40;;
47529;SDS011;33272;51.922;7.730;2023-07-16T11:27:15;2.77;;;2.43;;
47529;SDS011;33272;51.922;7.730;2023-07-16T11:29:44;5.30;;;2.93;;
47529;SDS011;33272;51.922;7.730;2023-07-16T11:32:13;5.13;;;2.73;;
47529;SDS011;33272;51.922;7.730;2023-07-16T11:34:51;3.67;;;2.70;;
47529;SDS011;33272;51.922;7.730;2023-07-16T11:37:21;4.90;;;2.70;;
47529;SDS011;33272;51.922;7.730;2023-07-16T11:39:48;4.57;;;2.90;;
47529;SDS011;33272;51.922;7.730;2023-07-16T11:42:18;4.73;;;2.83;;
47529;SDS011;33272;51.922;7.730;2023-07-16T11:44:50;5.77;;;2.87;;
47529;SDS011;33272;51.922;7.730;2023-07-16T11:47:17;3.30;;;2.57;;
47529;SDS011;33272;51.922;7.730;2023-07-16T11:49:44;4.90;;;2.83;;
47529;SDS011;33272;51.922;7.730;2023-07-16T11:52:11;4.33;;;2.83;;
47529;SDS011;33272;51.922;7.730;2023-07-16T11:54:39;3.30;;;2.53;;
47529;SDS011;33272;51.922;7.730;2023-07-16T11:57:06;5.30;;;2.80;;
47529;SDS011;33272;51.922;7.730;2023-07-16T11:59:33;3.90;;;2.47;;
47529;SDS011;33272;51.922;7.730;2023-07-16T12:02:00;4.27;;;2.70;;
47529;SDS011;33272;51.922;7.730;2023-07-16T12:04:28;3.00;;;2.40;;
47529;SDS011;33272;51.922;7.730;2023-07-16T12:06:55;5.77;;;2.87;;
47529;SDS011;33272;51.922;7.730;2023-07-16T12:09:22;4.43;;;2.70;;
47529;SDS011;33272;51.922;7.730;2023-07-16T12:11:50;4.40;;;2.73;;
47529;SDS011;33272;51.922;7.730;2023-07-16T12:14:17;3.80;;;2.73;;
47529;SDS011;33272;51.922;7.730;2023-07-16T12:16:44;4.50;;;2.93;;
47529;SDS011;33272;51.922;7.730;2023-07-16T12:19:11;4.00;;;2.83;;
47529;SDS011;33272;51.922;7.730;2023-07-16T12:21:38;5.33;;;2.60;;
47529;SDS011;33272;51.922;7.730;2023-07-16T12:24:05;4.87;;;3.27;;
47529;SDS011;33272;51.922;7.730;2023-07-16T12:26:32;5.23;;;2.80;;
47529;SDS011;33272;51.922;7.730;2023-07-16T12:29:01;4.50;;;2.63;;
47529;SDS011;33272;51.922;7.730;2023-07-16T12:31:30;3.63;;;2.53;;
47529;SDS011;33272;51.922;7.730;2023-07-16T12:33:57;4.23;;;2.97;;
47529;SDS011;33272;51.922;7.730;2023-07-16T12:36:26;4.40;;;2.70;;
47529;SDS011;33272;51.922;7.730;2023-07-16T12:38:54;3.83;;;2.43;;
47529;SDS011;33272;51.922;7.730;2023-07-16T12:41:21;3.03;;;2.70;;
47529;SDS011;33272;51.922;7.730;2023-07-16T12:43:48;3.97;;;2.50;;
47529;SDS011;33272;51.922;7.730;2023-07-16T12:46:16;4.17;;;3.00;;
47529;SDS011;33272;51.922;7.730;2023-07-16T12:48:43;4.40;;;2.60;;
47529;SDS011;33272;51.922;7.730;2023-07-16T12:51:10;5.37;;;2.67;;
47529;SDS011;33272;51.922;7.730;2023-07-16T12:53:37;4.87;;;2.80;;
47529;SDS011;33272;51.922;7.730;2023-07-16T12:56:05;4.00;;;2.80;;
47529;SDS011;33272;51.922;7.730;2023-07-16T12:58:32;5.10;;;3.00;;
47529;SDS011;33272;51.922;7.730;2023-07-16T13:00:59;3.10;;;2.47;;
47529;SDS011;33272;51.922;7.730;2023-07-16T13:03:27;4.80;;;2.93;;
47529;SDS011;33272;51.922;7.730;2023-07-16T13:05:54;4.73;;;3.10;;
47529;SDS011;33272;51.922;7.730;2023-07-16T13:08:21;6.03;;;2.97;;
47529;SDS011;33272;51.922;7.730;2023-07-16T13:10:48;3.97;;;2.47;;
47529;SDS011;33272;51.922;7.730;2023-07-16T13:13:15;5.40;;;2.90;;
47529;SDS011;33272;51.922;7.730;2023-07-16T13:15:42;4.43;;;3.20;;
47529;SDS011;33272;51.922;7.730;2023-07-16T13:18:10;3.67;;;2.80;;
47529;SDS011;33272;51.922;7.730;2023-07-16T13:20:38;7.40;;;2.93;;
47529;SDS011;33272;51.922;7.730;2023-07-16T13:23:06;4.30;;;2.70;;
47529;SDS011;33272;51.922;7.730;2023-07-16T13:25:33;3.30;;;2.57;;
47529;SDS011;33272;51.922;7.730;2023-07-16T13:28:01;4.00;;;2.67;;
47529;SDS011;33272;51.922;7.730;2023-07-16T13:30:28;5.67;;;2.90;;
47529;SDS011;33272;51.922;7.730;2023-07-16T13:32:55;3.43;;;2.40;;
47529;SDS011;33272;51.922;7.730;2023-07-16T13:35:22;3.13;;;2.40;;
47529;SDS011;33272;51.922;7.730;2023-07-16T13:37:51;3.97;;;2.47;;
47529;SDS011;33272;51.922;7.730;2023-07-16T13:40:18;5.00;;;2.60;;
47529;SDS011;33272;51.922;7.730;2023-07-16T13:42:45;5.57;;;3.00;;
47529;SDS011;33272;51.922;7.730;2023-07-16T13:45:12;5.53;;;2.77;;
47529;SDS011;33272;51.922;7.730;2023-07-16T13:47:40;3.73;;;2.50;;
47529;SDS011;33272;51.922;7.730;2023-07-16T13:50:08;5.53;;;2.80;;
47529;SDS011;33272;51.922;7.730;2023-07-16T13:52:35;4.43;;;2.87;;
47529;SDS011;33272;51.922;7.730;2023-07-16T13:55:05;5.13;;;2.47;;
47529;SDS011;33272;51.922;7.730;2023-07-16T13:57:32;5.10;;;3.27;;
47529;SDS011;33272;51.922;7.730;2023-07-16T13:59:59;4.83;;;2.60;;
47529;SDS011;33272;51.922;7.730;2023-07-16T14:02:26;4.60;;;2.80;;
47529;SDS011;33272;51.922;7.730;2023-07-16T14:04:54;4.03;;;3.00;;
47529;SDS011;33272;51.922;7.730;2023-07-16T14:07:21;4.23;;;3.20;;
47529;SDS011;33272;51.922;7.730;2023-07-16T14:09:49;6.07;;;3.20;;
47529;SDS011;33272;51.922;7.730;2023-07-16T14:12:17;4.97;;;3.00;;
47529;SDS011;33272;51.922;7.730;2023-07-16T14:14:44;5.97;;;2.77;;
47529;SDS011;33272;51.922;7.730;2023-07-16T14:17:11;4.10;;;3.00;;
47529;SDS011;33272;51.922;7.730;2023-07-16T14:19:38;4.27;;;2.70;;
47529;SDS011;33272;51.922;7.730;2023-07-16T14:22:05;3.80;;;2.60;;
47529;SDS011;33272;51.922;7.730;2023-07-16T14:24:36;5.57;;;2.90;;
47529;SDS011;33272;51.922;7.730;2023-07-16T14:27:04;4.27;;;2.83;;
47529;SDS011;33272;51.922;7.730;2023-07-16T14:29:34;2.90;;;2.30;;
47529;SDS011;33272;51.922;7.730;2023-07-16T14:32:01;3.47;;;2.63;;
47529;SDS011;33272;51.922;7.730;2023-07-16T14:34:29;5.37;;;2.67;;
47529;SDS011;33272;51.922;7.730;2023-07-16T14:36:56;4.03;;;2.67;;
47529;SDS011;33272;51.922;7.730;2023-07-16T14:39:23;4.37;;;2.57;;
47529;SDS011;33272;51.922;7.730;2023-07-16T14:41:50;4.97;;;2.70;;
47529;SDS011;33272;51.922;7.730;2023-07-16T14:44:17;5.03;;;2.80;;
47529;SDS011;33272;51.922;7.730;2023-07-16T14:46:46;3.17;;;2.40;;
47529;SDS011;33272;51.922;7.730;2023-07-16T14:49:13;3.23;;;2.70;;
47529;SDS011;33272;51.922;7.730;2023-07-16T14:51:40;3.23;;;2.80;;
47529;SDS011;33272;51.922;7.730;2023-07-16T14:54:07;3.87;;;2.63;;